sensor_id;sensor_type;location;lat;lon;timestamp;P1;durP1;ratioP1;P2;durP2;ratioP2
4428;SDS011;2227;47.810;8.810;2022-11-20T00:01:14;7.40;;;3.83;;
4428;SDS011;2227;47.810;8.810;2022-11-20T00:03:45;6.30;;;3.78;;
4428;SDS011;2227;47.810;8.810;2022-11-20T00:06:13;7.85;;;4.80;;
4428;SDS011;2227;47.810;8.810;2022-11-20T00:08:44;8.23;;;4.55;;
4428;SDS011;2227;47.810;8.810;2022-11-20T00:11:12;8.02;;;4.30;;
4428;SDS011;2227;47.810;8.810;2022-11-20T00:13:45;11.85;;;8.57;;
4428;SDS011;2227;47.810;8.810;2022-11-20T00:16:13;11.27;;;7.85;;
4428;SDS011;2227;47.810;8.810;2022-11-20T00:18:41;9.60;;;6.30;;
4428;SDS011;2227;47.810;8.810;2022-11-20T00:21:12;9.68;;;5.25;;
4428;SDS011;2227;47.810;8.810;2022-11-20T00:23:40;12.10;;;9.35;;
4428;SDS011;2227;47.810;8.810;2022-11-20T00:26:10;6.25;;;4.22;;
4428;SDS011;2227;47.810;8.810;2022-11-20T00:28:39;6.30;;;4.03;;
4428;SDS011;2227;47.810;8.810;2022-11-20T05:33:16;6.60;;;3.58;;
4428;SDS011;2227;47.810;8.810;2022-11-20T05:35:43;6.70;;;4.10;;
4428;SDS011;2227;47.810;8.810;2022-11-20T05:38:10;6.95;;;4.05;;
4428;SDS011;2227;47.810;8.810;2022-11-20T05:40:37;9.02;;;4.65;;
4428;SDS011;2227;47.810;8.810;2022-11-20T05:43:04;7.05;;;4.68;;
4428;SDS011;2227;47.810;8.810;2022-11-20T05:45:31;11.10;;;6.05;;
4428;SDS011;2227;47.810;8.810;2022-11-20T05:47:58;6.13;;;3.83;;
4428;SDS011;2227;47.810;8.810;2022-11-20T05:50:29;17.70;;;9.80;;
4428;SDS011;2227;47.810;8.810;2022-11-20T05:52:57;8.38;;;5.13;;
4428;SDS011;2227;47.810;8.810;2022-11-20T05:55:25;8.43;;;4.40;;
4428;SDS011;2227;47.810;8.810;2022-11-20T05:57:53;9.15;;;5.13;;
4428;SDS011;2227;47.810;8.810;2022-11-20T06:00:20;7.60;;;4.65;;
4428;SDS011;2227;47.810;8.810;2022-11-20T06:02:47;6.80;;;3.90;;
4428;SDS011;2227;47.810;8.810;2022-11-20T06:05:14;7.38;;;4.47;;
4428;SDS011;2227;47.810;8.810;2022-11-20T06:07:41;11.88;;;7.38;;
4428;SDS011;2227;47.810;8.810;2022-11-20T06:10:08;9.77;;;5.03;;
4428;SDS011;2227;47.810;8.810;2022-11-20T06:12:35;26.90;;;15.63;;
4428;SDS011;2227;47.810;8.810;2022-11-20T06:15:02;12.93;;;8.35;;
4428;SDS011;2227;47.810;8.810;2022-11-20T06:17:30;8.75;;;5.60;;
4428;SDS011;2227;47.810;8.810;2022-11-20T06:19:56;8.55;;;5.05;;
4428;SDS011;2227;47.810;8.810;2022-11-20T06:22:23;7.90;;;4.68;;
4428;SDS011;2227;47.810;8.810;2022-11-20T06:24:50;8.35;;;4.60;;
4428;SDS011;2227;47.810;8.810;2022-11-20T06:27:16;7.13;;;4.55;;
4428;SDS011;2227;47.810;8.810;2022-11-20T06:29:43;7.50;;;4.13;;
4428;SDS011;2227;47.810;8.810;2022-11-20T06:32:10;5.30;;;3.40;;
4428;SDS011;2227;47.810;8.810;2022-11-20T06:34:36;6.30;;;3.80;;
4428;SDS011;2227;47.810;8.810;2022-11-20T06:37:03;6.03;;;3.40;;
4428;SDS011;2227;47.810;8.810;2022-11-20T06:39:30;5.90;;;3.58;;
4428;SDS011;2227;47.810;8.810;2022-11-20T06:41:57;5.00;;;3.30;;
4428;SDS011;2227;47.810;8.810;2022-11-20T06:44:24;5.20;;;3.42;;
4428;SDS011;2227;47.810;8.810;2022-11-20T06:46:51;6.97;;;4.25;;
4428;SDS011;2227;47.810;8.810;2022-11-20T06:49:18;5.35;;;3.22;;
4428;SDS011;2227;47.810;8.810;2022-11-20T06:51:46;6.13;;;2.80;;
4428;SDS011;2227;47.810;8.810;2022-11-20T06:54:13;5.60;;;3.67;;
4428;SDS011;2227;47.810;8.810;2022-11-20T06:56:40;6.82;;;5.30;;
4428;SDS011;2227;47.810;8.810;2022-11-20T06:59:07;5.13;;;2.75;;
4428;SDS011;2227;47.810;8.810;2022-11-20T07:01:33;4.18;;;2.63;;
4428;SDS011;2227;47.810;8.810;2022-11-20T07:04:01;5.32;;;2.60;;
4428;SDS011;2227;47.810;8.810;2022-11-20T07:06:29;4.97;;;2.50;;
4428;SDS011;2227;47.810;8.810;2022-11-20T07:08:56;3.40;;;2.17;;
4428;SDS011;2227;47.810;8.810;2022-11-20T07:11:23;3.28;;;2.15;;
4428;SDS011;2227;47.810;8.810;2022-11-20T07:13:49;3.33;;;2.00;;
4428;SDS011;2227;47.810;8.810;2022-11-20T07:16:16;4.93;;;1.95;;
4428;SDS011;2227;47.810;8.810;2022-11-20T07:18:43;3.95;;;2.00;;
4428;SDS011;2227;47.810;8.810;2022-11-20T07:21:15;5.18;;;2.30;;
4428;SDS011;2227;47.810;8.810;2022-11-20T07:23:42;4.63;;;2.25;;
4428;SDS011;2227;47.810;8.810;2022-11-20T07:26:09;4.25;;;2.25;;
4428;SDS011;2227;47.810;8.810;2022-11-20T07:28:37;2.60;;;1.80;;
4428;SDS011;2227;47.810;8.810;2022-11-20T07:31:04;2.90;;;1.73;;
4428;SDS011;2227;47.810;8.810;2022-11-20T07:33:32;3.70;;;1.70;;
4428;SDS011;2227;47.810;8.810;2022-11-20T07:36:00;2.70;;;1.45;;
4428;SDS011;2227;47.810;8.810;2022-11-20T07:38:27;2.13;;;1.23;;
4428;SDS011;2227;47.810;8.810;2022-11-20T07:40:54;2.50;;;1.65;;
4428;SDS011;2227;47.810;8.810;2022-11-20T07:43:22;2.50;;;1.10;;
4428;SDS011;2227;47.810;8.810;2022-11-20T07:45:50;3.33;;;1.58;;
4428;SDS011;2227;47.810;8.810;2022-11-20T07:48:17;2.05;;;1.15;;
4428;SDS011;2227;47.810;8.810;2022-11-20T07:50:43;2.78;;;1.40;;
4428;SDS011;2227;47.810;8.810;2022-11-20T07:53:10;3.33;;;1.52;;
4428;SDS011;2227;47.810;8.810;2022-11-20T07:55:38;2.30;;;1.45;;
4428;SDS011;2227;47.810;8.810;2022-11-20T07:58:05;3.17;;;1.40;;
4428;SDS011;2227;47.810;8.810;2022-11-20T08:00:32;2.97;;;1.42;;
4428;SDS011;2227;47.810;8.810;2022-11-20T08:02:59;2.90;;;1.40;;
4428;SDS011;2227;47.810;8.810;2022-11-20T08:05:28;6.22;;;3.08;;
4428;SDS011;2227;47.810;8.810;2022-11-20T08:07:55;3.75;;;1.90;;
4428;SDS011;2227;47.810;8.810;2022-11-20T08:10:21;3.33;;;1.60;;
4428;SDS011;2227;47.810;8.810;2022-11-20T08:12:49;3.05;;;1.77;;
4428;SDS011;2227;47.810;8.810;2022-11-20T08:15:37;4.68;;;2.75;;
4428;SDS011;2227;47.810;8.810;2022-11-20T08:18:08;2.50;;;1.40;;
4428;SDS011;2227;47.810;8.810;2022-11-20T08:20:57;3.08;;;1.60;;
4428;SDS011;2227;47.810;8.810;2022-11-20T08:23:27;3.55;;;1.50;;
4428;SDS011;2227;47.810;8.810;2022-11-20T08:25:54;2.20;;;1.27;;
4428;SDS011;2227;47.810;8.810;2022-11-20T08:28:21;2.33;;;1.20;;
4428;SDS011;2227;47.810;8.810;2022-11-20T08:30:48;3.60;;;1.55;;
4428;SDS011;2227;47.810;8.810;2022-11-20T08:33:16;3.00;;;1.63;;
4428;SDS011;2227;47.810;8.810;2022-11-20T08:35:43;2.75;;;1.40;;
4428;SDS011;2227;47.810;8.810;2022-11-20T08:38:10;2.53;;;1.48;;
4428;SDS011;2227;47.810;8.810;2022-11-20T08:40:37;3.80;;;1.70;;
4428;SDS011;2227;47.810;8.810;2022-11-20T08:43:04;2.60;;;1.27;;
4428;SDS011;2227;47.810;8.810;2022-11-20T08:45:30;3.40;;;1.60;;
4428;SDS011;2227;47.810;8.810;2022-11-20T08:48:00;17.10;;;9.45;;
4428;SDS011;2227;47.810;8.810;2022-11-20T08:50:28;5.57;;;3.25;;
4428;SDS011;2227;47.810;8.810;2022-11-20T08:53:01;6.28;;;3.90;;
4428;SDS011;2227;47.810;8.810;2022-11-20T08:55:31;3.83;;;1.60;;
4428;SDS011;2227;47.810;8.810;2022-11-20T08:57:58;2.70;;;1.02;;
4428;SDS011;2227;47.810;8.810;2022-11-20T09:00:29;2.67;;;1.15;;
4428;SDS011;2227;47.810;8.810;2022-11-20T09:02:56;2.08;;;1.30;;
4428;SDS011;2227;47.810;8.810;2022-11-20T09:05:24;1.92;;;1.13;;
4428;SDS011;2227;47.810;8.810;2022-11-20T09:07:51;2.28;;;1.20;;
4428;SDS011;2227;47.810;8.810;2022-11-20T09:10:18;3.35;;;1.40;;
4428;SDS011;2227;47.810;8.810;2022-11-20T09:12:49;2.70;;;1.08;;
4428;SDS011;2227;47.810;8.810;2022-11-20T09:15:18;2.65;;;1.10;;
4428;SDS011;2227;47.810;8.810;2022-11-20T09:17:55;2.53;;;1.38;;
4428;SDS011;2227;47.810;8.810;2022-11-20T09:20:23;2.75;;;1.48;;
4428;SDS011;2227;47.810;8.810;2022-11-20T09:22:50;3.67;;;1.42;;
4428;SDS011;2227;47.810;8.810;2022-11-20T09:25:17;2.38;;;1.45;;
4428;SDS011;2227;47.810;8.810;2022-11-20T09:27:44;2.28;;;1.20;;
4428;SDS011;2227;47.810;8.810;2022-11-20T09:30:13;2.60;;;1.30;;
4428;SDS011;2227;47.810;8.810;2022-11-20T09:32:41;2.28;;;1.50;;
4428;SDS011;2227;47.810;8.810;2022-11-20T09:35:08;2.53;;;1.20;;
4428;SDS011;2227;47.810;8.810;2022-11-20T09:37:36;2.95;;;1.90;;
4428;SDS011;2227;47.810;8.810;2022-11-20T09:40:03;2.60;;;1.60;;
4428;SDS011;2227;47.810;8.810;2022-11-20T09:45:18;2.50;;;1.50;;
4428;SDS011;2227;47.810;8.810;2022-11-20T09:50:48;3.22;;;1.58;;
4428;SDS011;2227;47.810;8.810;2022-11-20T09:53:28;2.45;;;1.48;;
4428;SDS011;2227;47.810;8.810;2022-11-20T09:56:10;3.63;;;1.60;;
4428;SDS011;2227;47.810;8.810;2022-11-20T09:58:57;5.03;;;2.38;;
4428;SDS011;2227;47.810;8.810;2022-11-20T10:01:32;4.15;;;1.73;;
4428;SDS011;2227;47.810;8.810;2022-11-20T10:04:12;3.10;;;1.75;;
4428;SDS011;2227;47.810;8.810;2022-11-20T10:06:45;5.15;;;2.78;;
4428;SDS011;2227;47.810;8.810;2022-11-20T10:09:43;3.90;;;1.80;;
4428;SDS011;2227;47.810;8.810;2022-11-20T10:31:37;2.25;;;1.42;;
4428;SDS011;2227;47.810;8.810;2022-11-20T10:34:21;2.22;;;0.90;;
4428;SDS011;2227;47.810;8.810;2022-11-20T10:37:02;2.85;;;1.17;;
4428;SDS011;2227;47.810;8.810;2022-11-20T10:42:43;2.97;;;2.13;;
4428;SDS011;2227;47.810;8.810;2022-11-20T10:45:18;2.45;;;1.33;;
4428;SDS011;2227;47.810;8.810;2022-11-20T10:50:34;1.48;;;0.93;;
4428;SDS011;2227;47.810;8.810;2022-11-20T10:56:05;2.80;;;1.30;;
4428;SDS011;2227;47.810;8.810;2022-11-20T10:58:45;2.08;;;0.75;;
4428;SDS011;2227;47.810;8.810;2022-11-20T11:01:20;5.95;;;3.55;;
4428;SDS011;2227;47.810;8.810;2022-11-20T11:03:53;1.63;;;0.90;;
4428;SDS011;2227;47.810;8.810;2022-11-20T11:06:24;2.80;;;1.05;;
4428;SDS011;2227;47.810;8.810;2022-11-20T11:08:56;2.80;;;1.30;;
4428;SDS011;2227;47.810;8.810;2022-11-20T11:11:30;5.10;;;2.90;;
4428;SDS011;2227;47.810;8.810;2022-11-20T11:14:05;3.35;;;1.55;;
4428;SDS011;2227;47.810;8.810;2022-11-20T11:16:33;2.30;;;1.27;;
4428;SDS011;2227;47.810;8.810;2022-11-20T11:19:10;1.33;;;0.70;;
4428;SDS011;2227;47.810;8.810;2022-11-20T11:21:38;2.42;;;0.75;;
4428;SDS011;2227;47.810;8.810;2022-11-20T11:24:24;1.30;;;0.80;;
4428;SDS011;2227;47.810;8.810;2022-11-20T11:27:12;1.70;;;0.90;;
4428;SDS011;2227;47.810;8.810;2022-11-20T11:29:43;2.53;;;1.30;;
4428;SDS011;2227;47.810;8.810;2022-11-20T11:32:20;2.08;;;0.90;;
4428;SDS011;2227;47.810;8.810;2022-11-20T11:35:03;2.88;;;1.88;;
4428;SDS011;2227;47.810;8.810;2022-11-20T11:37:33;1.90;;;0.63;;
4428;SDS011;2227;47.810;8.810;2022-11-20T11:40:03;5.15;;;1.60;;
4428;SDS011;2227;47.810;8.810;2022-11-20T11:42:53;2.17;;;1.15;;
4428;SDS011;2227;47.810;8.810;2022-11-20T11:45:22;1.92;;;0.88;;
4428;SDS011;2227;47.810;8.810;2022-11-20T11:47:50;2.17;;;0.68;;
4428;SDS011;2227;47.810;8.810;2022-11-20T11:52:50;2.15;;;0.30;;
4428;SDS011;2227;47.810;8.810;2022-11-20T11:55:28;1.08;;;0.40;;
4428;SDS011;2227;47.810;8.810;2022-11-20T12:00:54;1.67;;;0.80;;
4428;SDS011;2227;47.810;8.810;2022-11-20T12:03:29;6.70;;;4.18;;
4428;SDS011;2227;47.810;8.810;2022-11-20T12:06:20;7.30;;;4.25;;
4428;SDS011;2227;47.810;8.810;2022-11-20T12:08:49;2.80;;;1.42;;
4428;SDS011;2227;47.810;8.810;2022-11-20T12:14:34;2.17;;;0.90;;
4428;SDS011;2227;47.810;8.810;2022-11-20T12:17:07;1.95;;;1.00;;
4428;SDS011;2227;47.810;8.810;2022-11-20T12:19:37;3.60;;;2.08;;
4428;SDS011;2227;47.810;8.810;2022-11-20T12:24:59;2.42;;;1.05;;
4428;SDS011;2227;47.810;8.810;2022-11-20T12:30:45;3.28;;;1.90;;
4428;SDS011;2227;47.810;8.810;2022-11-20T12:36:48;2.60;;;1.00;;
4428;SDS011;2227;47.810;8.810;2022-11-20T12:41:56;11.15;;;6.30;;
4428;SDS011;2227;47.810;8.810;2022-11-20T12:53:57;3.63;;;2.13;;
4428;SDS011;2227;47.810;8.810;2022-11-20T13:02:02;3.35;;;1.00;;
4428;SDS011;2227;47.810;8.810;2022-11-20T13:05:18;2.67;;;1.38;;
4428;SDS011;2227;47.810;8.810;2022-11-20T13:08:03;3.97;;;0.90;;
4428;SDS011;2227;47.810;8.810;2022-11-20T13:18:16;4.55;;;1.58;;
4428;SDS011;2227;47.810;8.810;2022-11-20T13:20:44;3.28;;;1.10;;
4428;SDS011;2227;47.810;8.810;2022-11-20T13:23:22;3.92;;;2.17;;
4428;SDS011;2227;47.810;8.810;2022-11-20T13:29:03;5.03;;;1.20;;
4428;SDS011;2227;47.810;8.810;2022-11-20T13:31:38;1.63;;;0.88;;
4428;SDS011;2227;47.810;8.810;2022-11-20T13:34:09;3.60;;;1.40;;
4428;SDS011;2227;47.810;8.810;2022-11-20T13:36:51;2.58;;;1.20;;
4428;SDS011;2227;47.810;8.810;2022-11-20T13:41:56;3.33;;;1.17;;
4428;SDS011;2227;47.810;8.810;2022-11-20T13:44:35;3.13;;;1.10;;
4428;SDS011;2227;47.810;8.810;2022-11-20T13:47:17;1.63;;;0.70;;
4428;SDS011;2227;47.810;8.810;2022-11-20T13:49:51;2.90;;;1.50;;
4428;SDS011;2227;47.810;8.810;2022-11-20T14:01:00;2.72;;;1.00;;
4428;SDS011;2227;47.810;8.810;2022-11-20T14:03:33;2.58;;;0.80;;
4428;SDS011;2227;47.810;8.810;2022-11-20T14:08:58;2.88;;;1.30;;
4428;SDS011;2227;47.810;8.810;2022-11-20T14:11:29;2.30;;;0.90;;
4428;SDS011;2227;47.810;8.810;2022-11-20T14:16:43;4.10;;;1.42;;
4428;SDS011;2227;47.810;8.810;2022-11-20T14:21:47;2.33;;;1.50;;
4428;SDS011;2227;47.810;8.810;2022-11-20T14:24:18;2.17;;;1.38;;
4428;SDS011;2227;47.810;8.810;2022-11-20T14:26:46;1.80;;;1.00;;
4428;SDS011;2227;47.810;8.810;2022-11-20T14:29:16;3.83;;;2.47;;
4428;SDS011;2227;47.810;8.810;2022-11-20T14:31:44;3.40;;;2.00;;
4428;SDS011;2227;47.810;8.810;2022-11-20T14:34:20;1.42;;;0.80;;
4428;SDS011;2227;47.810;8.810;2022-11-20T14:36:53;3.35;;;1.95;;
4428;SDS011;2227;47.810;8.810;2022-11-20T14:40:20;1.95;;;0.70;;
4428;SDS011;2227;47.810;8.810;2022-11-20T14:42:16;1.58;;;0.82;;
4428;SDS011;2227;47.810;8.810;2022-11-20T14:44:45;1.95;;;1.02;;
4428;SDS011;2227;47.810;8.810;2022-11-20T14:47:17;8.52;;;5.22;;
4428;SDS011;2227;47.810;8.810;2022-11-20T14:49:46;2.08;;;0.90;;
4428;SDS011;2227;47.810;8.810;2022-11-20T14:52:16;2.65;;;1.60;;
4428;SDS011;2227;47.810;8.810;2022-11-20T14:54:48;3.28;;;1.52;;
4428;SDS011;2227;47.810;8.810;2022-11-20T14:57:27;3.70;;;1.15;;
4428;SDS011;2227;47.810;8.810;2022-11-20T15:02:40;2.55;;;1.02;;
4428;SDS011;2227;47.810;8.810;2022-11-20T15:05:08;1.95;;;1.17;;
4428;SDS011;2227;47.810;8.810;2022-11-20T15:07:37;3.65;;;1.85;;
4428;SDS011;2227;47.810;8.810;2022-11-20T15:10:07;4.65;;;1.52;;
4428;SDS011;2227;47.810;8.810;2022-11-20T15:12:52;2.13;;;1.00;;
4428;SDS011;2227;47.810;8.810;2022-11-20T15:17:58;1.65;;;0.73;;
4428;SDS011;2227;47.810;8.810;2022-11-20T15:20:26;0.70;;;0.60;;
4428;SDS011;2227;47.810;8.810;2022-11-20T15:22:56;2.15;;;0.88;;
4428;SDS011;2227;47.810;8.810;2022-11-20T15:25:22;2.95;;;1.27;;
4428;SDS011;2227;47.810;8.810;2022-11-20T15:27:59;2.97;;;0.90;;
4428;SDS011;2227;47.810;8.810;2022-11-20T15:30:26;1.88;;;1.20;;
4428;SDS011;2227;47.810;8.810;2022-11-20T15:32:53;2.10;;;0.98;;
4428;SDS011;2227;47.810;8.810;2022-11-20T15:35:20;1.83;;;0.77;;
4428;SDS011;2227;47.810;8.810;2022-11-20T15:37:46;14.25;;;6.70;;
4428;SDS011;2227;47.810;8.810;2022-11-20T15:40:13;5.30;;;2.30;;
4428;SDS011;2227;47.810;8.810;2022-11-20T15:42:40;4.35;;;1.60;;
4428;SDS011;2227;47.810;8.810;2022-11-20T15:45:27;3.17;;;1.88;;
4428;SDS011;2227;47.810;8.810;2022-11-20T15:47:56;1.70;;;0.90;;
4428;SDS011;2227;47.810;8.810;2022-11-20T15:50:32;9.35;;;4.57;;
4428;SDS011;2227;47.810;8.810;2022-11-20T15:53:03;5.53;;;3.25;;
4428;SDS011;2227;47.810;8.810;2022-11-20T15:55:30;3.45;;;1.58;;
4428;SDS011;2227;47.810;8.810;2022-11-20T15:57:57;3.78;;;1.45;;
4428;SDS011;2227;47.810;8.810;2022-11-20T16:00:24;3.42;;;1.30;;
4428;SDS011;2227;47.810;8.810;2022-11-20T16:02:51;2.50;;;1.50;;
4428;SDS011;2227;47.810;8.810;2022-11-20T16:05:18;3.60;;;1.65;;
4428;SDS011;2227;47.810;8.810;2022-11-20T16:07:45;2.75;;;1.23;;
4428;SDS011;2227;47.810;8.810;2022-11-20T16:10:11;3.80;;;1.23;;
4428;SDS011;2227;47.810;8.810;2022-11-20T16:12:38;4.80;;;1.73;;
4428;SDS011;2227;47.810;8.810;2022-11-20T16:15:49;4.57;;;1.80;;
4428;SDS011;2227;47.810;8.810;2022-11-20T16:18:19;4.32;;;1.77;;
4428;SDS011;2227;47.810;8.810;2022-11-20T16:20:51;2.88;;;1.60;;
4428;SDS011;2227;47.810;8.810;2022-11-20T16:23:19;3.85;;;1.48;;
4428;SDS011;2227;47.810;8.810;2022-11-20T16:25:46;4.43;;;1.60;;
4428;SDS011;2227;47.810;8.810;2022-11-20T16:28:14;3.40;;;1.40;;
4428;SDS011;2227;47.810;8.810;2022-11-20T16:30:44;3.28;;;1.60;;
4428;SDS011;2227;47.810;8.810;2022-11-20T16:33:12;4.38;;;1.60;;
4428;SDS011;2227;47.810;8.810;2022-11-20T16:35:41;2.83;;;1.67;;
4428;SDS011;2227;47.810;8.810;2022-11-20T16:38:08;4.85;;;1.95;;
4428;SDS011;2227;47.810;8.810;2022-11-20T16:40:35;8.60;;;2.17;;
4428;SDS011;2227;47.810;8.810;2022-11-20T16:43:06;3.20;;;1.60;;
4428;SDS011;2227;47.810;8.810;2022-11-20T16:45:42;2.65;;;1.60;;
4428;SDS011;2227;47.810;8.810;2022-11-20T16:48:14;4.05;;;1.85;;
4428;SDS011;2227;47.810;8.810;2022-11-20T16:50:48;4.97;;;1.85;;
4428;SDS011;2227;47.810;8.810;2022-11-20T16:53:17;7.22;;;2.00;;
4428;SDS011;2227;47.810;8.810;2022-11-20T16:55:45;3.92;;;1.80;;
4428;SDS011;2227;47.810;8.810;2022-11-20T16:58:12;6.70;;;2.85;;
4428;SDS011;2227;47.810;8.810;2022-11-20T17:00:40;3.80;;;2.85;;
4428;SDS011;2227;47.810;8.810;2022-11-20T17:05:42;9.80;;;6.80;;
4428;SDS011;2227;47.810;8.810;2022-11-20T17:08:09;4.50;;;2.45;;
4428;SDS011;2227;47.810;8.810;2022-11-20T17:10:36;2.92;;;1.58;;
4428;SDS011;2227;47.810;8.810;2022-11-20T17:13:02;4.28;;;1.90;;
4428;SDS011;2227;47.810;8.810;2022-11-20T17:15:30;4.45;;;1.70;;
4428;SDS011;2227;47.810;8.810;2022-11-20T17:17:56;4.53;;;2.13;;
4428;SDS011;2227;47.810;8.810;2022-11-20T17:20:23;5.03;;;2.17;;
4428;SDS011;2227;47.810;8.810;2022-11-20T17:22:50;3.35;;;1.88;;
4428;SDS011;2227;47.810;8.810;2022-11-20T17:25:16;5.85;;;4.00;;
4428;SDS011;2227;47.810;8.810;2022-11-20T17:27:43;5.68;;;4.57;;
4428;SDS011;2227;47.810;8.810;2022-11-20T17:30:10;6.65;;;4.72;;
4428;SDS011;2227;47.810;8.810;2022-11-20T17:32:37;7.72;;;5.07;;
4428;SDS011;2227;47.810;8.810;2022-11-20T17:35:04;5.45;;;3.20;;
4428;SDS011;2227;47.810;8.810;2022-11-20T17:37:31;4.93;;;2.55;;
4428;SDS011;2227;47.810;8.810;2022-11-20T17:39:58;9.05;;;5.07;;
4428;SDS011;2227;47.810;8.810;2022-11-20T17:42:25;9.52;;;6.88;;
4428;SDS011;2227;47.810;8.810;2022-11-20T17:44:51;15.85;;;12.52;;
4428;SDS011;2227;47.810;8.810;2022-11-20T17:47:18;12.48;;;10.32;;
4428;SDS011;2227;47.810;8.810;2022-11-20T17:49:45;9.20;;;7.60;;
4428;SDS011;2227;47.810;8.810;2022-11-20T17:52:12;10.73;;;7.35;;
4428;SDS011;2227;47.810;8.810;2022-11-20T17:54:38;10.27;;;6.88;;
4428;SDS011;2227;47.810;8.810;2022-11-20T17:57:05;8.63;;;6.47;;
4428;SDS011;2227;47.810;8.810;2022-11-20T17:59:50;10.90;;;6.63;;
4428;SDS011;2227;47.810;8.810;2022-11-20T18:02:17;9.30;;;6.07;;
4428;SDS011;2227;47.810;8.810;2022-11-20T18:04:44;8.95;;;6.25;;
4428;SDS011;2227;47.810;8.810;2022-11-20T18:07:11;10.63;;;7.18;;
4428;SDS011;2227;47.810;8.810;2022-11-20T18:09:37;10.38;;;7.10;;
4428;SDS011;2227;47.810;8.810;2022-11-20T18:12:04;6.60;;;2.85;;
4428;SDS011;2227;47.810;8.810;2022-11-20T18:14:31;5.72;;;3.15;;
4428;SDS011;2227;47.810;8.810;2022-11-20T18:17:00;11.95;;;7.80;;
4428;SDS011;2227;47.810;8.810;2022-11-20T18:24:34;3.70;;;1.77;;
4428;SDS011;2227;47.810;8.810;2022-11-20T18:27:03;4.93;;;2.80;;
4428;SDS011;2227;47.810;8.810;2022-11-20T18:29:30;5.47;;;2.75;;
4428;SDS011;2227;47.810;8.810;2022-11-20T18:31:58;3.72;;;2.05;;
4428;SDS011;2227;47.810;8.810;2022-11-20T18:34:25;4.78;;;2.60;;
4428;SDS011;2227;47.810;8.810;2022-11-20T18:36:52;6.18;;;3.58;;
4428;SDS011;2227;47.810;8.810;2022-11-20T18:39:19;5.32;;;3.20;;
4428;SDS011;2227;47.810;8.810;2022-11-20T18:41:46;2.17;;;1.40;;
4428;SDS011;2227;47.810;8.810;2022-11-20T18:44:39;12.88;;;11.57;;
4428;SDS011;2227;47.810;8.810;2022-11-20T18:47:17;3.75;;;2.30;;
4428;SDS011;2227;47.810;8.810;2022-11-20T18:49:49;3.13;;;2.53;;
4428;SDS011;2227;47.810;8.810;2022-11-20T18:52:19;2.25;;;1.30;;
4428;SDS011;2227;47.810;8.810;2022-11-20T18:54:47;3.42;;;1.80;;
4428;SDS011;2227;47.810;8.810;2022-11-20T18:57:22;3.47;;;1.20;;
4428;SDS011;2227;47.810;8.810;2022-11-20T18:59:50;3.50;;;2.42;;
4428;SDS011;2227;47.810;8.810;2022-11-20T19:02:19;3.67;;;1.70;;
4428;SDS011;2227;47.810;8.810;2022-11-20T19:04:47;5.05;;;3.90;;
4428;SDS011;2227;47.810;8.810;2022-11-20T19:07:14;4.68;;;3.30;;
4428;SDS011;2227;47.810;8.810;2022-11-20T19:09:42;4.90;;;2.85;;
4428;SDS011;2227;47.810;8.810;2022-11-20T19:12:10;4.32;;;3.00;;
4428;SDS011;2227;47.810;8.810;2022-11-20T19:14:38;3.00;;;1.30;;
4428;SDS011;2227;47.810;8.810;2022-11-20T19:17:05;2.20;;;1.13;;
4428;SDS011;2227;47.810;8.810;2022-11-20T19:19:33;2.72;;;1.38;;
4428;SDS011;2227;47.810;8.810;2022-11-20T19:22:00;5.18;;;2.78;;
4428;SDS011;2227;47.810;8.810;2022-11-20T19:24:27;3.95;;;1.30;;
4428;SDS011;2227;47.810;8.810;2022-11-20T19:26:54;3.70;;;1.48;;
4428;SDS011;2227;47.810;8.810;2022-11-20T19:29:21;7.00;;;3.38;;
4428;SDS011;2227;47.810;8.810;2022-11-20T19:31:49;1.52;;;0.85;;
4428;SDS011;2227;47.810;8.810;2022-11-20T19:34:16;2.17;;;0.73;;
4428;SDS011;2227;47.810;8.810;2022-11-20T19:36:42;2.60;;;1.50;;
4428;SDS011;2227;47.810;8.810;2022-11-20T19:39:10;1.88;;;0.85;;
4428;SDS011;2227;47.810;8.810;2022-11-20T19:41:38;1.55;;;0.90;;
4428;SDS011;2227;47.810;8.810;2022-11-20T19:44:06;3.30;;;2.35;;
4428;SDS011;2227;47.810;8.810;2022-11-20T19:46:39;1.88;;;0.60;;
4428;SDS011;2227;47.810;8.810;2022-11-20T19:49:07;4.43;;;0.75;;
4428;SDS011;2227;47.810;8.810;2022-11-20T19:51:36;2.38;;;0.85;;
4428;SDS011;2227;47.810;8.810;2022-11-20T19:54:04;1.17;;;0.80;;
4428;SDS011;2227;47.810;8.810;2022-11-20T19:56:32;0.90;;;0.65;;
4428;SDS011;2227;47.810;8.810;2022-11-20T19:58:59;0.90;;;0.60;;
4428;SDS011;2227;47.810;8.810;2022-11-20T20:01:27;1.50;;;0.60;;
4428;SDS011;2227;47.810;8.810;2022-11-20T20:03:57;1.40;;;0.65;;
4428;SDS011;2227;47.810;8.810;2022-11-20T20:06:31;2.15;;;1.25;;
4428;SDS011;2227;47.810;8.810;2022-11-20T20:09:03;2.85;;;1.00;;
4428;SDS011;2227;47.810;8.810;2022-11-20T20:11:35;2.53;;;0.85;;
4428;SDS011;2227;47.810;8.810;2022-11-20T20:14:03;1.70;;;0.90;;
4428;SDS011;2227;47.810;8.810;2022-11-20T20:16:31;0.93;;;0.60;;
4428;SDS011;2227;47.810;8.810;2022-11-20T20:19:00;1.52;;;0.90;;
4428;SDS011;2227;47.810;8.810;2022-11-20T20:21:28;1.40;;;0.70;;
4428;SDS011;2227;47.810;8.810;2022-11-20T20:23:56;1.40;;;0.75;;
4428;SDS011;2227;47.810;8.810;2022-11-20T20:26:23;1.33;;;0.80;;
4428;SDS011;2227;47.810;8.810;2022-11-20T20:28:52;1.38;;;0.60;;
4428;SDS011;2227;47.810;8.810;2022-11-20T20:31:20;0.80;;;0.65;;
4428;SDS011;2227;47.810;8.810;2022-11-20T20:33:49;1.98;;;0.93;;
4428;SDS011;2227;47.810;8.810;2022-11-20T20:36:16;2.13;;;0.65;;
4428;SDS011;2227;47.810;8.810;2022-11-20T20:38:44;2.00;;;0.98;;
4428;SDS011;2227;47.810;8.810;2022-11-20T20:41:12;1.50;;;0.70;;
4428;SDS011;2227;47.810;8.810;2022-11-20T20:43:39;1.00;;;0.63;;
4428;SDS011;2227;47.810;8.810;2022-11-20T20:46:24;1.25;;;0.70;;
4428;SDS011;2227;47.810;8.810;2022-11-20T20:48:51;1.73;;;0.90;;
4428;SDS011;2227;47.810;8.810;2022-11-20T20:51:20;2.45;;;0.90;;
4428;SDS011;2227;47.810;8.810;2022-11-20T20:53:47;1.98;;;1.00;;
4428;SDS011;2227;47.810;8.810;2022-11-20T20:56:15;1.35;;;0.90;;
4428;SDS011;2227;47.810;8.810;2022-11-20T20:58:42;1.25;;;0.70;;
4428;SDS011;2227;47.810;8.810;2022-11-20T21:01:10;2.78;;;1.00;;
4428;SDS011;2227;47.810;8.810;2022-11-20T21:03:38;1.77;;;1.00;;
4428;SDS011;2227;47.810;8.810;2022-11-20T21:06:06;1.58;;;0.88;;
4428;SDS011;2227;47.810;8.810;2022-11-20T21:08:35;1.80;;;1.05;;
4428;SDS011;2227;47.810;8.810;2022-11-20T21:11:09;5.03;;;2.13;;
4428;SDS011;2227;47.810;8.810;2022-11-20T21:13:38;2.22;;;0.95;;
4428;SDS011;2227;47.810;8.810;2022-11-20T21:16:06;1.48;;;0.90;;
4428;SDS011;2227;47.810;8.810;2022-11-20T21:18:33;2.08;;;0.90;;
4428;SDS011;2227;47.810;8.810;2022-11-20T21:21:03;1.85;;;1.25;;
4428;SDS011;2227;47.810;8.810;2022-11-20T21:23:52;1.65;;;1.00;;
4428;SDS011;2227;47.810;8.810;2022-11-20T21:26:19;2.63;;;1.20;;
4428;SDS011;2227;47.810;8.810;2022-11-20T21:28:46;1.85;;;0.88;;
4428;SDS011;2227;47.810;8.810;2022-11-20T21:31:16;1.67;;;0.90;;
4428;SDS011;2227;47.810;8.810;2022-11-20T21:33:45;1.83;;;0.95;;
4428;SDS011;2227;47.810;8.810;2022-11-20T21:36:17;1.40;;;0.77;;
4428;SDS011;2227;47.810;8.810;2022-11-20T21:38:46;0.98;;;0.77;;
4428;SDS011;2227;47.810;8.810;2022-11-20T21:41:14;1.08;;;0.60;;
4428;SDS011;2227;47.810;8.810;2022-11-20T21:43:41;1.25;;;0.70;;
4428;SDS011;2227;47.810;8.810;2022-11-20T21:46:10;1.92;;;1.00;;
4428;SDS011;2227;47.810;8.810;2022-11-20T21:48:39;1.77;;;0.82;;
4428;SDS011;2227;47.810;8.810;2022-11-20T21:51:13;1.17;;;0.68;;
4428;SDS011;2227;47.810;8.810;2022-11-20T21:53:45;1.27;;;0.73;;
4428;SDS011;2227;47.810;8.810;2022-11-20T21:56:13;1.52;;;0.70;;
4428;SDS011;2227;47.810;8.810;2022-11-20T21:58:46;1.40;;;0.80;;
4428;SDS011;2227;47.810;8.810;2022-11-20T22:01:26;1.17;;;0.85;;
4428;SDS011;2227;47.810;8.810;2022-11-20T22:03:58;3.70;;;1.13;;
4428;SDS011;2227;47.810;8.810;2022-11-20T22:06:30;3.22;;;1.05;;
4428;SDS011;2227;47.810;8.810;2022-11-20T22:09:02;1.52;;;0.60;;
4428;SDS011;2227;47.810;8.810;2022-11-20T22:11:29;3.50;;;1.00;;
4428;SDS011;2227;47.810;8.810;2022-11-20T22:13:56;1.90;;;1.10;;
4428;SDS011;2227;47.810;8.810;2022-11-20T22:16:41;1.38;;;0.90;;
4428;SDS011;2227;47.810;8.810;2022-11-20T22:19:08;3.78;;;1.40;;
4428;SDS011;2227;47.810;8.810;2022-11-20T22:21:37;1.63;;;0.90;;
4428;SDS011;2227;47.810;8.810;2022-11-20T22:24:04;3.38;;;1.75;;
4428;SDS011;2227;47.810;8.810;2022-11-20T22:26:33;4.20;;;1.58;;
4428;SDS011;2227;47.810;8.810;2022-11-20T22:29:05;1.80;;;0.80;;